createdAt,value
2019-04-27T00:03:44.857Z,13.48
2019-04-27T00:06:38.196Z,13.53
2019-04-27T00:12:16.569Z,13.22
2019-04-27T00:15:03.467Z,13.27
2019-04-27T00:18:13.982Z,13.58
2019-04-27T00:20:53.597Z,15.48
2019-04-27T00:23:37.799Z,16.20
2019-04-27T00:26:26.653Z,15.90
2019-04-27T00:29:16.318Z,15.58
2019-04-27T00:32:05.875Z,17.00
2019-04-27T00:34:55.000Z,16.93
2019-04-27T00:37:47.821Z,17.55
2019-04-27T00:40:38.569Z,16.67
2019-04-27T00:43:27.707Z,13.53
2019-04-27T00:48:37.782Z,15.32
2019-04-27T00:51:26.541Z,16.17
2019-04-27T00:54:15.426Z,15.88
2019-04-27T00:57:08.892Z,15.18
2019-04-27T01:00:13.366Z,15.88
2019-04-27T01:03:17.298Z,16.07
2019-04-27T01:05:44.343Z,15.72
2019-04-27T01:08:34.272Z,16.27
2019-04-27T01:11:24.955Z,15.88
2019-04-27T01:14:07.791Z,15.70
2019-04-27T01:16:51.490Z,16.57
2019-04-27T01:19:41.698Z,16.55
2019-04-27T01:22:31.735Z,16.45
2019-04-27T01:25:21.892Z,16.07
2019-04-27T01:28:23.751Z,16.32
2019-04-27T01:31:14.219Z,14.70
2019-04-27T01:34:04.237Z,15.40
2019-04-27T01:36:53.593Z,14.73
2019-04-27T01:39:43.401Z,15.32
2019-04-27T01:42:32.771Z,15.75
2019-04-27T01:47:49.189Z,15.72
2019-04-27T01:50:39.305Z,18.07
2019-04-27T01:53:30.415Z,16.97
2019-04-27T01:56:20.030Z,18.10
2019-04-27T02:01:38.789Z,18.30
2019-04-27T02:04:29.841Z,20.12
2019-04-27T02:09:45.652Z,19.30
2019-04-27T02:12:35.433Z,20.48
2019-04-27T02:15:24.554Z,21.95
2019-04-27T02:18:13.830Z,19.37
2019-04-27T02:20:55.197Z,18.27
2019-04-27T02:23:44.853Z,19.00
2019-04-27T02:26:34.589Z,18.35
2019-04-27T02:29:29.157Z,17.92
2019-04-27T02:32:20.432Z,20.05
2019-04-27T02:37:52.235Z,29.07
2019-04-27T02:41:10.261Z,21.55
2019-04-27T02:46:50.151Z,19.75
2019-04-27T02:49:40.789Z,18.80
2019-04-27T02:52:44.414Z,18.27
2019-04-27T02:55:33.578Z,19.92
2019-04-27T02:58:22.091Z,17.73
2019-04-27T03:01:11.412Z,17.50
2019-04-27T03:04:00.835Z,18.48
2019-04-27T03:06:50.676Z,20.85
2019-04-27T03:09:40.799Z,21.33
2019-04-27T03:12:32.547Z,19.87
2019-04-27T03:21:13.221Z,21.70
2019-04-27T03:26:39.424Z,20.00
2019-04-27T03:29:30.641Z,21.02
2019-04-27T03:32:22.680Z,21.40
2019-04-27T03:35:12.764Z,24.40
2019-04-27T03:38:01.646Z,24.23
2019-04-27T03:40:53.017Z,24.37
2019-04-27T03:43:43.164Z,21.75
2019-04-27T03:48:59.969Z,21.10
2019-04-27T03:51:51.662Z,19.50
2019-04-27T03:54:52.428Z,18.80
2019-04-27T03:58:01.031Z,19.60
2019-04-27T04:00:52.288Z,20.08
2019-04-27T04:03:40.194Z,19.27
2019-04-27T04:06:29.656Z,19.17
2019-04-27T04:09:22.161Z,16.50
2019-04-27T04:12:13.804Z,20.15
2019-04-27T04:15:03.137Z,20.52
2019-04-27T04:20:20.383Z,19.25
2019-04-27T04:23:10.549Z,18.75
2019-04-27T04:26:00.612Z,17.48
2019-04-27T04:28:50.168Z,17.98
2019-04-27T04:31:40.414Z,15.98
2019-04-27T04:36:56.032Z,15.95
2019-04-27T04:39:40.247Z,16.55
2019-04-27T04:42:30.651Z,17.12
2019-04-27T04:45:23.197Z,17.48
2019-04-27T04:48:14.446Z,17.50
2019-04-27T04:51:03.559Z,18.15
2019-04-27T04:53:52.988Z,17.07
2019-04-27T04:56:42.898Z,17.60
2019-04-27T04:59:31.721Z,19.32
2019-04-27T05:02:22.117Z,19.15
2019-04-27T05:05:11.486Z,18.45
2019-04-27T05:08:00.945Z,18.75
2019-04-27T05:10:49.900Z,16.93
2019-04-27T05:13:39.455Z,16.48
2019-04-27T05:21:25.861Z,15.88
2019-04-27T05:24:15.231Z,22.90
2019-04-27T05:27:05.226Z,24.07
2019-04-27T05:37:12.753Z,25.10
2019-04-27T05:40:02.789Z,24.98
2019-04-27T05:42:55.377Z,24.07
2019-04-27T05:48:15.416Z,22.75
2019-04-27T05:51:05.417Z,22.10
2019-04-27T05:53:54.785Z,21.77
2019-04-27T05:56:44.441Z,22.55
2019-04-27T05:59:34.119Z,22.05
2019-04-27T06:02:23.628Z,21.30
2019-04-27T06:05:13.443Z,19.87
2019-04-27T06:08:02.468Z,20.48
2019-04-27T06:10:52.092Z,19.73
2019-04-27T06:13:41.689Z,18.85
2019-04-27T06:16:30.914Z,19.40
2019-04-27T06:19:20.318Z,19.12
2019-04-27T06:22:09.892Z,19.12
2019-04-27T06:29:52.090Z,15.93
2019-04-27T06:32:41.641Z,16.55
2019-04-27T06:35:31.541Z,17.10
2019-04-27T06:38:20.799Z,16.02
2019-04-27T06:41:10.304Z,15.95
2019-04-27T06:43:59.594Z,15.75
2019-04-27T06:49:14.702Z,14.73
2019-04-27T06:52:04.008Z,16.12
2019-04-27T06:54:46.172Z,14.68
2019-04-27T06:57:35.538Z,14.38
2019-04-27T07:00:24.433Z,15.48
2019-04-27T07:08:05.873Z,13.20
2019-04-27T07:11:01.578Z,13.85
2019-04-27T07:13:43.124Z,14.53
2019-04-27T07:16:32.215Z,14.33
2019-04-27T07:19:21.516Z,15.10
2019-04-27T07:22:11.502Z,14.93
2019-04-27T07:25:01.139Z,14.20
2019-04-27T07:27:50.537Z,13.90
2019-04-27T07:30:18.973Z,13.88
2019-04-27T07:33:09.115Z,14.33
2019-04-27T07:35:59.070Z,14.03
2019-04-27T07:41:14.824Z,17.10
2019-04-27T07:49:19.028Z,18.12
2019-04-27T07:52:02.681Z,14.73
2019-04-27T07:54:45.178Z,16.15
2019-04-27T07:57:35.086Z,16.15
2019-04-27T08:00:25.278Z,16.75
2019-04-27T08:03:15.288Z,15.90
2019-04-27T08:06:04.677Z,16.48
2019-04-27T08:08:54.025Z,18.57
2019-04-27T08:11:42.950Z,16.75
2019-04-27T08:14:32.313Z,16.60
2019-04-27T08:17:21.514Z,17.45
2019-04-27T08:20:10.734Z,16.50
2019-04-27T08:23:01.310Z,16.52
2019-04-27T08:25:50.256Z,15.28
2019-04-27T08:31:32.016Z,14.95
2019-04-27T08:34:40.532Z,17.70
2019-04-27T08:39:56.440Z,19.98
2019-04-27T08:42:45.922Z,26.55
2019-04-27T08:45:35.497Z,22.07
2019-04-27T08:50:50.824Z,26.33
2019-04-27T08:53:40.526Z,25.43
2019-04-27T08:56:30.540Z,24.50
2019-04-27T08:59:19.921Z,26.62
2019-04-27T09:02:09.211Z,28.27
2019-04-27T09:04:59.657Z,29.77
2019-04-27T09:15:44.589Z,33.88
2019-04-27T09:21:10.614Z,33.30
2019-04-27T09:24:00.022Z,30.02
2019-04-27T09:26:42.894Z,31.07
2019-04-27T09:31:59.627Z,32.70
2019-04-27T09:34:49.873Z,27.80
2019-04-27T09:37:39.946Z,29.45
2019-04-27T09:40:31.697Z,28.87
2019-04-27T09:43:21.256Z,28.92
2019-04-27T09:48:36.289Z,28.02
2019-04-27T09:51:25.664Z,28.42
2019-04-27T09:54:15.938Z,25.75
2019-04-27T09:59:31.494Z,26.80
2019-04-27T10:02:21.003Z,26.82
2019-04-27T10:05:11.081Z,29.40
2019-04-27T10:10:27.732Z,26.95
2019-04-27T10:13:17.119Z,26.45
2019-04-27T10:16:06.037Z,26.75
2019-04-27T10:21:22.340Z,27.87
2019-04-27T10:24:11.133Z,26.25
2019-04-27T10:27:00.239Z,23.83
2019-04-27T10:29:27.303Z,24.65
2019-04-27T10:32:16.926Z,25.37
2019-04-27T10:35:07.574Z,25.62
2019-04-27T10:37:56.968Z,23.90
2019-04-27T10:43:11.492Z,22.52
2019-04-27T10:46:01.297Z,22.22
2019-04-27T10:48:50.780Z,21.25
2019-04-27T10:51:39.942Z,20.00
2019-04-27T10:54:29.236Z,21.87
2019-04-27T10:57:18.393Z,19.75
2019-04-27T11:02:34.527Z,18.48
2019-04-27T11:05:31.158Z,18.73
2019-04-27T11:08:20.274Z,20.02
2019-04-27T11:11:09.825Z,17.52
2019-04-27T11:14:01.019Z,17.40
2019-04-27T11:16:51.184Z,17.27
2019-04-27T11:19:40.729Z,16.70
2019-04-27T11:24:56.456Z,22.77
2019-04-27T11:27:45.825Z,18.12
2019-04-27T11:30:35.151Z,16.93
2019-04-27T11:33:26.374Z,14.95
2019-04-27T11:36:27.951Z,14.60
2019-04-27T11:41:54.998Z,17.05
2019-04-27T11:44:44.427Z,17.65
2019-04-27T11:49:55.771Z,17.70
2019-04-27T11:52:45.641Z,17.87
2019-04-27T11:55:35.867Z,18.87
2019-04-27T11:58:02.911Z,18.07
2019-04-27T12:00:52.764Z,19.30
2019-04-27T12:03:41.653Z,19.32
2019-04-27T12:08:59.148Z,19.05
2019-04-27T12:11:49.400Z,18.12
2019-04-27T12:14:39.090Z,20.27
2019-04-27T12:17:29.241Z,15.90
2019-04-27T12:20:21.843Z,27.13
2019-04-27T12:23:11.210Z,15.68
2019-04-27T12:25:38.271Z,18.48
2019-04-27T12:28:28.881Z,19.05
2019-04-27T12:33:59.061Z,17.12
2019-04-27T12:36:48.420Z,18.52
2019-04-27T12:39:37.840Z,15.55
2019-04-27T12:42:27.021Z,16.17
2019-04-27T12:44:54.063Z,16.40
2019-04-27T12:50:10.979Z,19.07
2019-04-27T12:53:04.629Z,14.53
2019-04-27T12:55:56.546Z,19.70
2019-04-27T12:58:47.646Z,19.92
2019-04-27T13:01:36.584Z,16.80
2019-04-27T13:09:20.011Z,15.88
2019-04-27T13:12:09.327Z,14.07
2019-04-27T13:14:58.956Z,14.10
2019-04-27T13:17:47.672Z,14.95
2019-04-27T13:20:36.694Z,11.35
2019-04-27T13:23:28.662Z,10.95
2019-04-27T13:26:18.110Z,13.03
2019-04-27T13:29:07.131Z,10.75
2019-04-27T13:31:57.745Z,11.15
2019-04-27T13:34:47.114Z,10.85
2019-04-27T13:37:39.328Z,12.40
2019-04-27T13:43:00.362Z,11.25
2019-04-27T13:45:58.043Z,12.43
2019-04-27T13:51:17.848Z,12.53
2019-04-27T13:54:18.548Z,10.43
2019-04-27T13:56:35.216Z,10.48
2019-04-27T13:59:25.030Z,11.22
2019-04-27T14:02:16.032Z,10.20
2019-04-27T14:07:31.129Z,8.40
2019-04-27T14:10:21.510Z,10.78
2019-04-27T14:15:36.638Z,8.33
2019-04-27T14:18:26.069Z,8.80
2019-04-27T14:23:42.649Z,10.08
2019-04-27T14:26:31.653Z,9.63
2019-04-27T14:29:21.186Z,9.85
2019-04-27T14:32:10.927Z,9.38
2019-04-27T14:35:00.191Z,9.50
2019-04-27T14:37:50.406Z,9.88
2019-04-27T14:43:05.964Z,8.60
2019-04-27T14:45:55.634Z,8.70
2019-04-27T14:48:44.705Z,8.50
2019-04-27T14:51:34.137Z,8.55
2019-04-27T14:54:25.260Z,8.70
2019-04-27T14:57:16.297Z,9.45
2019-04-27T15:02:31.866Z,9.00
2019-04-27T15:05:21.813Z,8.68
2019-04-27T15:08:10.482Z,9.58
2019-04-27T15:15:51.965Z,8.95
2019-04-27T15:18:43.711Z,8.65
2019-04-27T15:21:38.378Z,8.88
2019-04-27T15:24:13.439Z,8.15
2019-04-27T15:27:02.137Z,8.73
2019-04-27T15:32:19.051Z,8.33
2019-04-27T15:37:50.208Z,8.40
2019-04-27T15:43:15.142Z,8.03
2019-04-27T15:46:05.409Z,8.35
2019-04-27T15:48:54.823Z,8.88
2019-04-27T15:54:09.481Z,9.55
2019-04-27T15:56:58.755Z,7.72
2019-04-27T15:59:48.269Z,8.18
2019-04-27T16:02:38.320Z,8.45
2019-04-27T16:05:32.228Z,9.00
2019-04-27T16:08:19.065Z,7.92
2019-04-27T16:13:34.095Z,8.43
2019-04-27T16:16:24.583Z,9.85
2019-04-27T16:19:14.212Z,10.08
2019-04-27T16:21:46.938Z,8.20
2019-04-27T16:24:32.614Z,6.53
2019-04-27T16:27:25.761Z,8.05
2019-04-27T16:30:17.871Z,8.53
2019-04-27T16:33:03.541Z,8.50
2019-04-27T16:35:53.204Z,7.72
2019-04-27T16:39:03.855Z,8.20
2019-04-27T16:44:25.658Z,11.38
2019-04-27T16:47:18.874Z,11.93
2019-04-27T16:50:05.285Z,8.10
2019-04-27T16:55:20.723Z,8.23
2019-04-27T16:58:15.709Z,8.38
2019-04-27T17:01:06.697Z,7.53
2019-04-27T17:08:44.175Z,6.72
2019-04-27T17:11:33.861Z,7.35
2019-04-27T17:14:29.004Z,6.47
2019-04-27T17:19:44.051Z,6.37
2019-04-27T17:22:33.550Z,6.65
2019-04-27T17:25:23.518Z,6.20
2019-04-27T17:30:41.903Z,6.10
2019-04-27T17:36:04.716Z,6.33
2019-04-27T17:38:54.485Z,6.37
2019-04-27T17:41:49.265Z,6.97
2019-04-27T17:47:01.476Z,10.13
2019-04-27T17:49:50.427Z,8.43
2019-04-27T17:52:39.895Z,7.00
2019-04-27T17:55:29.797Z,6.30
2019-04-27T17:58:20.907Z,6.17
2019-04-27T18:01:13.917Z,6.40
2019-04-27T18:04:06.433Z,5.97
2019-04-27T18:06:59.675Z,5.45
2019-04-27T18:14:41.226Z,5.58
2019-04-27T18:17:30.183Z,5.40
2019-04-27T18:23:25.179Z,4.55
2019-04-27T18:26:19.722Z,4.87
2019-04-27T18:29:09.402Z,4.62
2019-04-27T18:31:58.736Z,4.70
2019-04-27T18:34:51.939Z,4.58
2019-04-27T18:37:28.296Z,4.97
2019-04-27T18:40:10.901Z,4.75
2019-04-27T18:43:12.047Z,4.92
2019-04-27T18:45:58.765Z,4.70
2019-04-27T18:48:53.918Z,3.17
2019-04-27T18:51:39.977Z,4.00
2019-04-27T18:54:15.562Z,3.30
2019-04-27T18:57:02.634Z,3.55
2019-04-27T18:59:35.878Z,3.42
2019-04-27T19:02:18.496Z,3.58
2019-04-27T19:04:54.900Z,3.50
2019-04-27T19:07:38.299Z,3.22
2019-04-27T19:10:28.164Z,3.65
2019-04-27T19:13:19.230Z,3.20
2019-04-27T19:16:09.105Z,3.30
2019-04-27T19:18:58.559Z,3.58
2019-04-27T19:21:48.607Z,3.22
2019-04-27T19:24:37.481Z,2.80
2019-04-27T19:27:42.546Z,3.80
2019-04-27T19:30:29.894Z,2.98
2019-04-27T19:33:19.761Z,3.10
2019-04-27T19:36:09.086Z,3.30
2019-04-27T19:38:58.898Z,3.05
2019-04-27T19:41:59.456Z,3.08
2019-04-27T19:44:39.319Z,2.98
2019-04-27T19:47:29.900Z,3.50
2019-04-27T19:50:21.951Z,3.47
2019-04-27T19:53:11.226Z,3.60
2019-04-27T19:56:08.696Z,3.45
2019-04-27T19:59:00.015Z,3.60
2019-04-27T20:01:34.172Z,2.92
2019-04-27T20:07:10.643Z,3.25
2019-04-27T20:10:02.175Z,3.58
2019-04-27T20:12:51.873Z,4.62
2019-04-27T20:15:42.916Z,4.92
2019-04-27T20:18:31.882Z,5.58
2019-04-27T20:21:21.611Z,3.70
2019-04-27T20:24:11.784Z,2.98
2019-04-27T20:27:03.895Z,3.12
2019-04-27T20:29:53.727Z,3.20
2019-04-27T20:32:42.732Z,3.02
2019-04-27T20:35:31.891Z,2.55
2019-04-27T20:38:21.889Z,3.30
2019-04-27T20:41:11.610Z,3.30
2019-04-27T20:44:02.217Z,3.10
2019-04-27T20:46:51.498Z,3.10
2019-04-27T20:49:40.135Z,3.08
2019-04-27T20:54:55.511Z,3.40
2019-04-27T20:57:44.596Z,3.72
2019-04-27T21:00:33.973Z,3.30
2019-04-27T21:08:16.859Z,3.90
2019-04-27T21:11:05.637Z,4.22
2019-04-27T21:13:56.777Z,4.03
2019-04-27T21:16:45.346Z,3.02
2019-04-27T21:19:34.192Z,3.37
2019-04-27T21:22:23.632Z,3.25
2019-04-27T21:25:12.723Z,3.52
2019-04-27T21:37:46.961Z,3.30
2019-04-27T21:40:36.404Z,3.10
2019-04-27T21:43:29.211Z,3.33
2019-04-27T21:51:11.819Z,3.30
2019-04-27T21:54:05.714Z,3.98
2019-04-27T21:56:54.678Z,3.70
2019-04-27T21:59:43.798Z,3.83
2019-04-27T22:02:33.590Z,4.10
2019-04-27T22:05:22.726Z,3.83
2019-04-27T22:07:56.649Z,3.62
2019-04-27T22:10:46.611Z,3.90
2019-04-27T22:13:35.946Z,4.08
2019-04-27T22:16:25.362Z,3.70
2019-04-27T22:19:14.868Z,3.40
2019-04-27T22:24:42.830Z,4.30
2019-04-27T22:29:56.693Z,4.90
2019-04-27T22:32:45.915Z,4.70
2019-04-27T22:35:35.091Z,4.55
2019-04-27T22:41:03.825Z,5.33
2019-04-27T22:46:26.272Z,5.90
2019-04-27T22:49:16.062Z,5.47
2019-04-27T22:54:47.286Z,5.22
2019-04-27T22:57:38.653Z,4.60
2019-04-27T23:00:37.886Z,4.37
2019-04-27T23:03:32.663Z,4.55
2019-04-27T23:06:22.578Z,4.92
2019-04-27T23:09:11.851Z,5.00
2019-04-27T23:12:01.800Z,4.35
2019-04-27T23:14:51.154Z,4.67
2019-04-27T23:23:05.720Z,4.00
2019-04-27T23:25:55.670Z,4.03
2019-04-27T23:28:25.019Z,3.77
2019-04-27T23:31:31.918Z,3.77
2019-04-27T23:34:22.079Z,4.40
2019-04-27T23:37:11.062Z,3.80
2019-04-27T23:40:00.871Z,3.87
2019-04-27T23:42:37.369Z,4.40
2019-04-27T23:47:52.938Z,3.85
2019-04-27T23:50:36.332Z,2.83
2019-04-27T23:56:02.169Z,4.35
